createdAt,value
2018-12-24T00:02:08.183Z,58.20
2018-12-24T00:05:04.491Z,58.40
2018-12-24T00:08:01.143Z,58.30
2018-12-24T00:10:57.361Z,58.40
2018-12-24T00:13:53.480Z,58.30
2018-12-24T00:16:49.940Z,58.50
2018-12-24T00:19:46.685Z,58.50
2018-12-24T00:22:46.096Z,58.60
2018-12-24T00:25:42.207Z,58.70
2018-12-24T00:28:41.614Z,58.70
2018-12-24T00:31:38.056Z,58.90
2018-12-24T00:34:34.503Z,58.90
2018-12-24T00:37:30.936Z,58.90
2018-12-24T00:40:28.398Z,58.30
2018-12-24T00:43:24.729Z,58.80
2018-12-24T00:46:20.769Z,58.70
2018-12-24T00:49:16.967Z,58.70
2018-12-24T00:52:13.722Z,58.80
2018-12-24T00:55:09.954Z,58.80
2018-12-24T00:58:05.972Z,58.80
2018-12-24T01:01:02.736Z,58.80
2018-12-24T01:03:59.771Z,58.90
2018-12-24T01:06:55.508Z,58.80
2018-12-24T01:09:51.023Z,58.80
2018-12-24T01:12:47.343Z,58.90
2018-12-24T01:15:43.897Z,58.90
2018-12-24T01:18:41.609Z,59.00
2018-12-24T01:21:56.226Z,59.00
2018-12-24T01:25:01.654Z,59.10
2018-12-24T01:27:48.383Z,59.30
2018-12-24T01:30:44.102Z,59.30
2018-12-24T01:33:40.142Z,59.40
2018-12-24T01:36:36.462Z,59.70
2018-12-24T01:39:32.585Z,59.70
2018-12-24T01:42:33.546Z,59.80
2018-12-24T01:45:30.684Z,59.90
2018-12-24T01:48:27.937Z,59.20
2018-12-24T01:51:24.573Z,59.80
2018-12-24T01:54:20.139Z,59.80
2018-12-24T01:57:21.197Z,59.90
2018-12-24T02:00:17.548Z,59.90
2018-12-24T02:03:15.579Z,60.00
2018-12-24T02:06:11.438Z,60.00
2018-12-24T02:09:08.913Z,59.90
2018-12-24T02:12:06.315Z,60.50
2018-12-24T02:15:05.469Z,60.00
2018-12-24T02:18:01.187Z,60.00
2018-12-24T02:20:57.625Z,60.10
2018-12-24T02:23:53.749Z,60.20
2018-12-24T02:26:49.990Z,60.20
2018-12-24T02:29:52.164Z,60.30
2018-12-24T02:32:54.145Z,60.50
2018-12-24T02:35:50.254Z,60.50
2018-12-24T02:38:53.129Z,60.70
2018-12-24T02:41:52.252Z,60.70
2018-12-24T02:44:45.303Z,60.60
2018-12-24T02:47:43.361Z,60.40
2018-12-24T02:50:57.326Z,60.10
2018-12-24T02:53:53.690Z,59.80
2018-12-24T02:56:50.094Z,59.60
2018-12-24T02:59:45.920Z,59.50
2018-12-24T03:02:42.186Z,59.40
2018-12-24T03:05:38.157Z,59.00
2018-12-24T03:08:34.288Z,58.50
2018-12-24T03:11:30.563Z,58.20
2018-12-24T03:14:27.822Z,58.00
2018-12-24T03:17:24.044Z,58.10
2018-12-24T03:20:20.522Z,58.10
2018-12-24T03:23:16.360Z,57.80
2018-12-24T03:26:13.137Z,57.70
2018-12-24T03:29:09.865Z,57.50
2018-12-24T03:32:06.042Z,57.20
2018-12-24T03:35:02.418Z,57.10
2018-12-24T03:37:59.646Z,57.10
2018-12-24T03:40:55.901Z,56.50
2018-12-24T03:43:51.628Z,56.40
2018-12-24T03:46:47.599Z,56.30
2018-12-24T03:49:44.352Z,56.00
2018-12-24T03:52:42.871Z,55.80
2018-12-24T03:55:40.063Z,55.80
2018-12-24T03:58:37.292Z,55.60
2018-12-24T04:01:52.361Z,55.60
2018-12-24T04:04:48.826Z,55.60
2018-12-24T04:07:45.459Z,55.30
2018-12-24T04:10:41.479Z,55.40
2018-12-24T04:13:37.809Z,55.40
2018-12-24T04:16:34.321Z,55.30
2018-12-24T04:19:30.398Z,55.20
2018-12-24T04:22:26.730Z,55.20
2018-12-24T04:25:22.671Z,55.20
2018-12-24T04:28:23.868Z,55.00
2018-12-24T04:31:19.686Z,55.10
2018-12-24T04:34:15.904Z,54.60
2018-12-24T04:37:12.735Z,54.30
2018-12-24T04:40:09.270Z,54.10
2018-12-24T04:43:05.613Z,54.10
2018-12-24T04:46:01.656Z,54.00
2018-12-24T04:48:57.985Z,53.90
2018-12-24T04:51:54.622Z,53.80
2018-12-24T04:54:50.713Z,53.80
2018-12-24T04:57:47.016Z,53.70
2018-12-24T05:00:46.570Z,53.80
2018-12-24T05:07:15.144Z,53.70
2018-12-24T05:10:11.449Z,53.50
2018-12-24T05:13:09.871Z,53.20
2018-12-24T05:16:14.779Z,53.10
2018-12-24T05:19:07.900Z,53.10
2018-12-24T05:22:03.675Z,53.30
2018-12-24T05:24:59.218Z,53.20
2018-12-24T05:27:55.382Z,53.20
2018-12-24T05:30:52.890Z,53.20
2018-12-24T05:33:48.914Z,53.10
2018-12-24T05:36:45.621Z,53.20
2018-12-24T05:39:41.670Z,53.30
2018-12-24T05:42:40.968Z,52.90
2018-12-24T05:45:37.320Z,52.80
2018-12-24T05:48:33.619Z,52.70
2018-12-24T05:51:30.078Z,52.80
2018-12-24T05:54:26.970Z,53.10
2018-12-24T05:57:27.096Z,52.90
2018-12-24T06:00:32.658Z,52.80
2018-12-24T06:03:41.197Z,52.30
2018-12-24T06:06:37.130Z,52.20
2018-12-24T06:09:42.468Z,52.50
2018-12-24T06:12:53.542Z,52.00
2018-12-24T06:15:49.205Z,51.90
2018-12-24T06:18:46.429Z,51.80
2018-12-24T06:21:43.554Z,51.90
2018-12-24T06:24:55.800Z,51.10
2018-12-24T06:27:54.639Z,51.10
2018-12-24T06:30:55.264Z,51.60
2018-12-24T06:33:58.011Z,51.60
2018-12-24T06:36:54.064Z,51.60
2018-12-24T06:43:15.037Z,51.60
2018-12-24T06:46:12.853Z,51.70
2018-12-24T06:49:10.025Z,51.30
2018-12-24T06:52:12.727Z,50.70
2018-12-24T06:58:58.812Z,50.00
2018-12-24T07:02:27.897Z,49.80
2018-12-24T07:05:28.901Z,49.50
2018-12-24T07:08:29.322Z,49.30
2018-12-24T07:11:30.218Z,49.40
2018-12-24T07:14:30.977Z,48.30
2018-12-24T07:17:27.584Z,48.40
2018-12-24T07:20:25.226Z,48.40
2018-12-24T07:23:21.817Z,48.30
2018-12-24T07:26:23.042Z,48.30
2018-12-24T07:29:19.276Z,48.10
2018-12-24T07:32:15.749Z,47.90
2018-12-24T07:35:11.855Z,47.80
2018-12-24T07:38:08.511Z,47.60
2018-12-24T07:41:04.626Z,46.60
2018-12-24T07:44:02.926Z,45.70
2018-12-24T07:46:59.537Z,45.20
2018-12-24T07:49:57.241Z,45.10
2018-12-24T07:52:54.219Z,44.70
2018-12-24T07:55:52.542Z,44.40
2018-12-24T07:58:48.829Z,43.90
2018-12-24T08:01:44.799Z,44.10
2018-12-24T08:04:40.712Z,44.10
2018-12-24T08:07:46.510Z,43.80
2018-12-24T08:11:04.514Z,43.70
2018-12-24T08:14:09.245Z,43.70
2018-12-24T08:17:32.782Z,43.50
2018-12-24T08:20:32.376Z,43.20
2018-12-24T08:23:29.562Z,43.20
2018-12-24T08:26:31.972Z,43.50
2018-12-24T08:29:31.200Z,43.70
2018-12-24T08:32:35.027Z,43.60
2018-12-24T08:35:33.181Z,43.60
2018-12-24T08:38:29.447Z,43.80
2018-12-24T08:41:28.524Z,43.70
2018-12-24T08:44:53.165Z,43.70
2018-12-24T08:51:38.912Z,44.40
2018-12-24T08:54:35.546Z,44.20
2018-12-24T08:57:31.771Z,43.90
2018-12-24T09:00:27.592Z,44.10
2018-12-24T09:03:24.757Z,44.40
2018-12-24T09:06:20.727Z,44.30
2018-12-24T09:09:18.911Z,44.60
2018-12-24T09:12:35.207Z,44.30
2018-12-24T09:15:31.385Z,43.80
2018-12-24T09:18:27.658Z,43.70
2018-12-24T09:21:26.619Z,43.90
2018-12-24T09:24:25.874Z,43.90
2018-12-24T09:27:25.650Z,43.70
2018-12-24T09:30:52.194Z,43.10
2018-12-24T09:36:11.032Z,43.30
2018-12-24T09:38:29.238Z,43.60
2018-12-24T09:46:42.316Z,43.10
2018-12-24T09:49:05.798Z,42.90
2018-12-24T09:52:12.008Z,43.10
2018-12-24T09:55:39.606Z,43.10
2018-12-24T09:59:05.867Z,42.40
2018-12-24T10:02:10.615Z,42.00
2018-12-24T10:05:06.062Z,41.30
2018-12-24T10:08:02.959Z,40.80
2018-12-24T10:14:15.230Z,40.30
2018-12-24T10:17:14.181Z,40.20
2018-12-24T10:20:11.535Z,40.20
2018-12-24T10:23:11.879Z,40.40
2018-12-24T10:26:14.770Z,40.20
2018-12-24T10:29:11.082Z,40.30
2018-12-24T10:32:07.710Z,40.50
2018-12-24T10:35:03.564Z,40.70
2018-12-24T10:38:04.880Z,40.50
2018-12-24T10:41:20.310Z,40.60
2018-12-24T10:44:18.585Z,40.50
2018-12-24T10:47:20.458Z,40.70
2018-12-24T10:50:17.661Z,41.10
2018-12-24T10:57:16.826Z,40.40
2018-12-24T11:00:20.425Z,40.30
2018-12-24T11:03:20.750Z,40.60
2018-12-24T11:06:36.038Z,40.80
2018-12-24T11:09:35.156Z,40.90
2018-12-24T11:12:51.549Z,41.20
2018-12-24T11:16:00.983Z,41.90
2018-12-24T11:18:59.870Z,42.50
2018-12-24T11:22:26.082Z,43.00
2018-12-24T11:25:25.003Z,43.30
2018-12-24T11:28:25.124Z,43.60
2018-12-24T11:31:33.477Z,43.80
2018-12-24T11:34:31.966Z,44.10
2018-12-24T11:37:29.572Z,44.50
2018-12-24T11:40:35.899Z,44.80
2018-12-24T11:43:39.227Z,45.30
2018-12-24T11:46:37.595Z,45.40
2018-12-24T11:49:45.614Z,45.30
2018-12-24T11:53:01.114Z,45.30
2018-12-24T11:56:14.106Z,45.40
2018-12-24T11:59:26.557Z,45.70
2018-12-24T12:02:27.295Z,45.90
2018-12-24T12:05:40.636Z,46.20
2018-12-24T12:08:38.724Z,46.50
2018-12-24T12:11:37.022Z,46.80
2018-12-24T12:14:42.513Z,47.00
2018-12-24T12:17:49.237Z,47.00
2018-12-24T12:21:01.426Z,47.20
2018-12-24T12:24:20.780Z,47.40
2018-12-24T12:27:20.346Z,47.40
2018-12-24T12:30:17.040Z,47.40
2018-12-24T12:33:14.418Z,47.50
2018-12-24T12:36:11.964Z,47.70
2018-12-24T12:39:29.398Z,48.00
2018-12-24T12:42:33.035Z,48.20
2018-12-24T12:45:54.456Z,48.30
2018-12-24T12:48:52.744Z,48.00
2018-12-24T12:51:52.919Z,48.10
2018-12-24T12:54:49.665Z,48.50
2018-12-24T12:57:45.852Z,48.60
2018-12-24T13:00:42.137Z,48.70
2018-12-24T13:03:38.751Z,48.90
2018-12-24T13:06:48.651Z,49.10
2018-12-24T13:09:48.360Z,49.40
2018-12-24T13:13:00.855Z,49.40
2018-12-24T13:16:11.240Z,49.10
2018-12-24T13:19:08.711Z,49.20
2018-12-24T13:22:07.886Z,49.30
2018-12-24T13:25:04.392Z,49.40
2018-12-24T13:28:00.655Z,49.50
2018-12-24T13:30:57.079Z,49.60
2018-12-24T13:33:53.416Z,49.70
2018-12-24T13:36:50.453Z,49.80
2018-12-24T13:39:46.496Z,49.70
2018-12-24T13:42:52.334Z,49.70
2018-12-24T13:45:48.581Z,49.80
2018-12-24T13:48:45.633Z,50.00
2018-12-24T13:51:42.405Z,50.10
2018-12-24T13:54:39.128Z,50.20
2018-12-24T13:57:35.729Z,50.20
2018-12-24T14:00:35.063Z,50.10
2018-12-24T14:03:31.380Z,50.20
2018-12-24T14:06:31.941Z,50.40
2018-12-24T14:09:28.247Z,50.90
2018-12-24T14:12:24.245Z,50.70
2018-12-24T14:15:20.308Z,50.80
2018-12-24T14:18:17.544Z,50.90
2018-12-24T14:21:14.136Z,50.90
2018-12-24T14:24:10.958Z,50.90
2018-12-24T14:27:07.697Z,51.30
2018-12-24T14:30:04.999Z,51.60
2018-12-24T14:33:02.311Z,51.80
2018-12-24T14:35:59.058Z,51.90
2018-12-24T14:38:55.587Z,51.90
2018-12-24T14:41:52.136Z,52.00
2018-12-24T14:44:48.347Z,52.10
2018-12-24T14:47:44.971Z,51.60
2018-12-24T14:50:47.188Z,52.50
2018-12-24T14:53:37.882Z,52.60
2018-12-24T14:56:37.963Z,52.70
2018-12-24T14:59:30.958Z,52.70
2018-12-24T15:02:30.457Z,52.70
2018-12-24T15:05:27.912Z,52.70
2018-12-24T15:08:24.371Z,52.60
2018-12-24T15:11:21.407Z,52.50
2018-12-24T15:14:18.253Z,52.50
2018-12-24T15:17:14.733Z,52.50
2018-12-24T15:20:11.444Z,52.50
2018-12-24T15:23:07.868Z,52.60
2018-12-24T15:26:03.905Z,52.50
2018-12-24T15:29:01.405Z,52.60
2018-12-24T15:32:02.964Z,52.60
2018-12-24T15:35:01.206Z,52.70
2018-12-24T15:37:53.832Z,52.80
2018-12-24T15:40:50.688Z,53.10
2018-12-24T15:43:50.310Z,53.50
2018-12-24T15:46:47.149Z,53.80
2018-12-24T15:49:44.591Z,54.10
2018-12-24T15:52:41.149Z,54.50
2018-12-24T15:55:37.794Z,55.00
2018-12-24T15:58:36.489Z,55.10
2018-12-24T16:01:33.225Z,55.30
2018-12-24T16:04:30.180Z,55.80
2018-12-24T16:07:26.406Z,56.10
2018-12-24T16:10:22.801Z,56.50
2018-12-24T16:13:19.280Z,56.90
2018-12-24T16:16:15.713Z,57.30
2018-12-24T16:19:12.254Z,57.50
2018-12-24T16:22:08.440Z,57.70
2018-12-24T16:25:05.232Z,58.00
2018-12-24T16:28:01.861Z,58.30
2018-12-24T16:30:57.997Z,58.60
2018-12-24T16:33:54.491Z,58.90
2018-12-24T16:36:50.141Z,59.10
2018-12-24T16:39:46.303Z,59.40
2018-12-24T16:42:45.527Z,59.60
2018-12-24T16:45:42.619Z,60.00
2018-12-24T16:48:38.973Z,60.10
2018-12-24T16:51:38.135Z,60.50
2018-12-24T16:54:34.186Z,60.70
2018-12-24T16:57:31.047Z,60.80
2018-12-24T17:00:27.279Z,60.90
2018-12-24T17:03:23.510Z,61.00
2018-12-24T17:06:19.535Z,61.20
2018-12-24T17:09:16.372Z,61.40
2018-12-24T17:12:12.925Z,61.60
2018-12-24T17:15:10.074Z,61.60
2018-12-24T17:18:06.612Z,61.40
2018-12-24T17:21:03.153Z,60.90
2018-12-24T17:23:59.775Z,60.60
2018-12-24T17:26:56.533Z,60.30
2018-12-24T17:29:53.078Z,60.20
2018-12-24T17:32:49.115Z,60.10
2018-12-24T17:35:45.932Z,59.90
2018-12-24T17:38:42.385Z,59.60
2018-12-24T17:41:38.604Z,59.50
2018-12-24T17:44:34.748Z,59.50
2018-12-24T17:47:30.962Z,59.50
2018-12-24T17:50:27.215Z,58.70
2018-12-24T17:53:30.321Z,59.30
2018-12-24T17:56:27.034Z,59.30
2018-12-24T17:59:19.423Z,59.20
2018-12-24T18:02:16.334Z,59.20
2018-12-24T18:05:12.667Z,59.20
2018-12-24T18:08:09.721Z,59.30
2018-12-24T18:11:06.040Z,59.20
2018-12-24T18:14:03.001Z,59.30
2018-12-24T18:16:59.337Z,59.30
2018-12-24T18:19:56.184Z,59.40
2018-12-24T18:22:53.131Z,59.40
2018-12-24T18:25:50.180Z,59.40
2018-12-24T18:28:49.268Z,59.50
2018-12-24T18:31:46.537Z,59.40
2018-12-24T18:34:43.181Z,59.40
2018-12-24T18:37:39.923Z,59.40
2018-12-24T18:40:36.447Z,59.40
2018-12-24T18:43:33.000Z,59.60
2018-12-24T18:46:29.024Z,59.50
2018-12-24T18:49:25.573Z,59.40
2018-12-24T18:52:22.306Z,59.50
2018-12-24T18:55:20.235Z,59.60
2018-12-24T18:58:15.288Z,59.60
2018-12-24T19:01:11.583Z,59.60
2018-12-24T19:04:07.851Z,59.60
2018-12-24T19:07:04.592Z,59.60
2018-12-24T19:10:01.848Z,59.40
2018-12-24T19:12:58.986Z,59.40
2018-12-24T19:15:55.433Z,59.40
2018-12-24T19:18:53.135Z,59.40
2018-12-24T19:21:49.228Z,59.40
2018-12-24T19:24:45.419Z,59.30
2018-12-24T19:27:41.890Z,59.20
2018-12-24T19:30:38.238Z,59.20
2018-12-24T19:33:34.519Z,59.20
2018-12-24T19:36:31.310Z,59.10
2018-12-24T19:39:30.275Z,59.30
2018-12-24T19:42:26.110Z,59.20
2018-12-24T19:45:21.856Z,59.40
2018-12-24T19:48:18.745Z,59.40
2018-12-24T19:51:14.797Z,59.40
2018-12-24T19:54:10.668Z,59.40
2018-12-24T19:57:12.101Z,59.40
2018-12-24T20:00:12.333Z,59.40
2018-12-24T20:03:05.044Z,59.40
2018-12-24T20:06:01.920Z,59.40
2018-12-24T20:08:58.129Z,59.30
2018-12-24T20:11:54.689Z,59.30
2018-12-24T20:14:51.120Z,59.40
2018-12-24T20:17:47.975Z,59.40
2018-12-24T20:20:44.116Z,59.40
2018-12-24T20:23:41.055Z,59.20
2018-12-24T20:26:38.005Z,59.20
2018-12-24T20:29:34.090Z,59.20
2018-12-24T20:32:30.568Z,59.10
2018-12-24T20:35:26.992Z,59.20
2018-12-24T20:38:23.320Z,59.30
2018-12-24T20:41:19.953Z,59.30
2018-12-24T20:44:16.624Z,59.40
2018-12-24T20:47:14.381Z,59.40
2018-12-24T20:50:11.544Z,59.40
2018-12-24T20:53:08.181Z,59.30
2018-12-24T20:56:04.284Z,59.30
2018-12-24T20:59:00.273Z,59.30
2018-12-24T21:01:56.262Z,59.30
2018-12-24T21:04:51.987Z,59.50
2018-12-24T21:07:48.102Z,59.50
2018-12-24T21:10:44.614Z,59.60
2018-12-24T21:13:40.668Z,59.80
2018-12-24T21:16:36.585Z,59.90
2018-12-24T21:19:32.731Z,60.00
2018-12-24T21:22:29.072Z,60.10
2018-12-24T21:25:25.397Z,60.10
2018-12-24T21:28:21.932Z,60.20
2018-12-24T21:31:18.071Z,60.30
2018-12-24T21:34:14.199Z,60.50
2018-12-24T21:37:13.919Z,60.40
2018-12-24T21:40:15.100Z,60.50
2018-12-24T21:43:11.274Z,60.40
2018-12-24T21:46:14.025Z,60.10
2018-12-24T21:49:07.571Z,60.10
2018-12-24T21:52:03.341Z,60.20
2018-12-24T21:54:58.922Z,60.20
2018-12-24T21:57:55.384Z,60.20
2018-12-24T22:00:51.432Z,60.30
2018-12-24T22:03:48.300Z,60.50
2018-12-24T22:06:44.525Z,60.70
2018-12-24T22:09:41.578Z,60.70
2018-12-24T22:12:40.467Z,60.70
2018-12-24T22:15:36.567Z,60.80
2018-12-24T22:18:42.048Z,60.80
2018-12-24T22:21:38.972Z,60.70
2018-12-24T22:24:35.224Z,60.60
2018-12-24T22:27:31.455Z,60.50
2018-12-24T22:30:27.892Z,60.60
2018-12-24T22:33:24.727Z,60.70
2018-12-24T22:36:20.974Z,60.80
2018-12-24T22:39:17.507Z,60.90
2018-12-24T22:42:14.149Z,60.80
2018-12-24T22:45:10.984Z,60.80
2018-12-24T22:48:06.800Z,60.90
2018-12-24T22:51:04.892Z,61.00
2018-12-24T22:54:01.433Z,61.10
2018-12-24T22:56:59.690Z,61.60
2018-12-24T22:59:55.935Z,61.00
2018-12-24T23:02:52.071Z,61.10
2018-12-24T23:05:51.376Z,61.20
2018-12-24T23:08:47.673Z,61.30
2018-12-24T23:11:44.789Z,61.50
2018-12-24T23:14:41.403Z,61.50
2018-12-24T23:17:37.544Z,61.70
2018-12-24T23:20:33.423Z,61.90
2018-12-24T23:23:30.520Z,62.00
2018-12-24T23:26:26.941Z,62.10
2018-12-24T23:29:23.919Z,62.20
2018-12-24T23:32:20.325Z,62.20
2018-12-24T23:35:16.867Z,62.20
2018-12-24T23:38:13.395Z,63.10
2018-12-24T23:41:09.109Z,62.40
2018-12-24T23:44:09.332Z,62.70
2018-12-24T23:47:07.024Z,62.80
2018-12-24T23:50:03.758Z,63.00
2018-12-24T23:53:03.338Z,63.10
2018-12-24T23:56:00.115Z,63.20
2018-12-24T23:58:56.779Z,63.20
